Cumberland, RI

4:59 PM EDT on August 22, 2014 (GMT -0400)
Woonsocket Oak Grove | Change Station
CLOSE
Current Station
Personal Weather Station
Location: Cumberland, RI
Elevation: 223 ft
Nearby Weather Stations

Elev 223 ft 41.98 °N, 71.48 °W | Updated 27 minutes ago

Overcast
Overcast
71.1 °F
Feels Like 73 °F
N
5.0
Wind Variable Wind from ENE
Gusts 10.0 mph

Today
High -- | Low -- °F
--% Chance of Precip.
Yesterday
High -- | Low -- °F
Precip. -- in
6:00 AM 7:35 PM
Waning Crescent, 7% visible
Pressure 30.06 in
Visibility 10.0 miles
Clouds Few 4700 ft
Few 5500 ft
Overcast 8000 ft
Heat Index 73 °F
Dew Point 63 °F
Humidity 75%
Rainfall 0.72 in
Snow Depth Not available.
UV 1 out of 12
Pollen 6.00 out of 12
Ozone Good
PM2.5 Good
Flu Activity Not available.
METAR KSFZ 222055Z 09008KT 10SM FEW047 FEW055 OVC080 21/13 A3006 RMK AO1 57010

More Conditions Fewer Conditions

Pressure 30.06 in
Visibility 10.0 miles
Clouds Few 4700 ft
Few 5500 ft
Overcast 8000 ft
Heat Index 73 °F
Dew Point 63 °F
Humidity 75%
Rainfall 0.72 in
Snow Depth Not available.
UV 1 out of 12
Pollen 6.00 out of 12
Ozone Good
PM2.5 Good
Flu Activity Not available.
METAR KSFZ 222055Z 09008KT 10SM FEW047 FEW055 OVC080 21/13 A3006 RMK AO1 57010

More Conditions Fewer Conditions

10-Day Weather Forecast

Almanac

Astronomy

Aug. 22, 2014 Rise Set
Actual Time 6:00 AM EDT 7:35 PM EDT
Civil Twilight 5:31 AM EDT 8:04 PM EDT
Nautical Twilight 4:55 AM EDT 8:40 PM EDT
Astronomical Twilight 4:17 AM EDT 9:18 PM EDT
Moon 3:19 AM EDT 5:42 PM EDT
Length of Visible Light 14h 33m
Length of Day
13h 34m
Tomorrow will be 2m 35s shorter.
Waning Crescent, 7% of the Moon is Illuminated
Today
Waning Crescent
Aug 25
New
Sep 2
First Quarter
Sep 8
Full
Sep 15
Last Quarter

Today's Extremes

State Highs State Lows

Community

WunderPhotos

Upload Photos

1,746,245 photos uploaded!

Nearby

Air Quality

  Air Quality AQ Index Pollutant
Yesterday Good
OZONE
Yesterday Good
PM2.5
Current Good
PM2.5
Current Good
OZONE
Friday Good
OZONE
Friday Good
PM2.5
Saturday Good
OZONE
Saturday Good
PM2.5
Sunday Good
OZONE
Sunday Good
PM2.5
Monday Good
OZONE
Monday Good
PM2.5
Tuesday Good
OZONE
Tuesday Good
PM2.5

Snow Depth

Station Depth Elevation
No new snow has been reported.

Earthquake Activity

City Distance Mag. Time & Date
No recent earthquake activity has been reported nearby.
Minimum magnitude displayed is 2.5.

Coastal Water Temperatures

Place Temperature
Newport, RI 69.1 °F
Quonset Point, RI 72.0 °F
Conimicut Light, RI 73.9 °F

Nearby Weather Stations